sensor_id;sensor_type;location;lat;lon;timestamp;P1;durP1;ratioP1;P2;durP2;ratioP2
8102;SDS011;4094;49.948;11.574;2023-08-31T00:00:34;4.13;;;3.93;;
8102;SDS011;4094;49.948;11.574;2023-08-31T00:03:03;4.30;;;3.87;;
8102;SDS011;4094;49.948;11.574;2023-08-31T00:05:33;4.03;;;3.83;;
8102;SDS011;4094;49.948;11.574;2023-08-31T00:08:08;4.20;;;4.00;;
8102;SDS011;4094;49.948;11.574;2023-08-31T00:10:38;4.03;;;3.83;;
8102;SDS011;4094;49.948;11.574;2023-08-31T00:13:07;4.30;;;4.10;;
8102;SDS011;4094;49.948;11.574;2023-08-31T00:15:37;4.03;;;3.83;;
8102;SDS011;4094;49.948;11.574;2023-08-31T00:18:08;3.77;;;3.57;;
8102;SDS011;4094;49.948;11.574;2023-08-31T00:20:38;4.00;;;3.80;;
8102;SDS011;4094;49.948;11.574;2023-08-31T00:23:07;4.13;;;3.77;;
8102;SDS011;4094;49.948;11.574;2023-08-31T00:25:38;4.00;;;3.80;;
8102;SDS011;4094;49.948;11.574;2023-08-31T00:28:11;3.80;;;3.60;;
8102;SDS011;4094;49.948;11.574;2023-08-31T00:30:43;4.50;;;4.20;;
8102;SDS011;4094;49.948;11.574;2023-08-31T00:33:13;4.50;;;4.20;;
8102;SDS011;4094;49.948;11.574;2023-08-31T00:35:43;4.27;;;3.97;;
8102;SDS011;4094;49.948;11.574;2023-08-31T00:38:14;3.87;;;3.67;;
8102;SDS011;4094;49.948;11.574;2023-08-31T00:40:44;4.50;;;4.20;;
8102;SDS011;4094;49.948;11.574;2023-08-31T00:43:14;4.17;;;3.87;;
8102;SDS011;4094;49.948;11.574;2023-08-31T00:45:45;3.80;;;3.60;;
8102;SDS011;4094;49.948;11.574;2023-08-31T00:48:17;4.03;;;3.77;;
8102;SDS011;4094;49.948;11.574;2023-08-31T00:50:47;4.30;;;4.07;;
8102;SDS011;4094;49.948;11.574;2023-08-31T00:53:18;4.30;;;4.00;;
8102;SDS011;4094;49.948;11.574;2023-08-31T00:55:48;4.33;;;3.93;;
8102;SDS011;4094;49.948;11.574;2023-08-31T00:58:17;4.10;;;3.90;;
8102;SDS011;4094;49.948;11.574;2023-08-31T01:00:47;5.03;;;4.40;;
8102;SDS011;4094;49.948;11.574;2023-08-31T01:03:24;4.10;;;3.90;;
8102;SDS011;4094;49.948;11.574;2023-08-31T01:06:02;4.30;;;4.07;;
8102;SDS011;4094;49.948;11.574;2023-08-31T01:08:43;4.47;;;4.17;;
8102;SDS011;4094;49.948;11.574;2023-08-31T01:11:22;5.00;;;4.60;;
8102;SDS011;4094;49.948;11.574;2023-08-31T01:14:00;5.87;;;5.23;;
8102;SDS011;4094;49.948;11.574;2023-08-31T01:16:36;6.20;;;5.60;;
8102;SDS011;4094;49.948;11.574;2023-08-31T01:19:09;5.37;;;4.87;;
8102;SDS011;4094;49.948;11.574;2023-08-31T01:21:52;4.60;;;4.30;;
8102;SDS011;4094;49.948;11.574;2023-08-31T01:24:27;4.90;;;4.57;;
8102;SDS011;4094;49.948;11.574;2023-08-31T01:26:57;4.83;;;4.53;;
8102;SDS011;4094;49.948;11.574;2023-08-31T01:29:27;4.40;;;4.17;;
8102;SDS011;4094;49.948;11.574;2023-08-31T01:31:58;4.60;;;4.30;;
8102;SDS011;4094;49.948;11.574;2023-08-31T01:34:27;4.83;;;4.53;;
8102;SDS011;4094;49.948;11.574;2023-08-31T01:36:57;5.10;;;4.80;;
8102;SDS011;4094;49.948;11.574;2023-08-31T01:39:32;5.63;;;5.20;;
8102;SDS011;4094;49.948;11.574;2023-08-31T01:42:07;5.83;;;5.33;;
8102;SDS011;4094;49.948;11.574;2023-08-31T01:44:38;6.00;;;5.37;;
8102;SDS011;4094;49.948;11.574;2023-08-31T01:47:08;5.83;;;5.43;;
8102;SDS011;4094;49.948;11.574;2023-08-31T01:49:38;5.60;;;5.20;;
8102;SDS011;4094;49.948;11.574;2023-08-31T01:52:08;5.27;;;4.87;;
8102;SDS011;4094;49.948;11.574;2023-08-31T01:54:38;5.50;;;5.00;;
8102;SDS011;4094;49.948;11.574;2023-08-31T01:57:07;5.20;;;4.80;;
8102;SDS011;4094;49.948;11.574;2023-08-31T01:59:56;5.93;;;4.70;;
8102;SDS011;4094;49.948;11.574;2023-08-31T02:02:25;5.00;;;4.60;;
8102;SDS011;4094;49.948;11.574;2023-08-31T02:04:54;4.87;;;4.57;;
8102;SDS011;4094;49.948;11.574;2023-08-31T02:07:24;4.50;;;4.20;;
8102;SDS011;4094;49.948;11.574;2023-08-31T02:09:55;4.67;;;4.37;;
8102;SDS011;4094;49.948;11.574;2023-08-31T02:12:24;4.20;;;4.00;;
8102;SDS011;4094;49.948;11.574;2023-08-31T02:14:53;4.80;;;4.40;;
8102;SDS011;4094;49.948;11.574;2023-08-31T02:17:22;5.30;;;5.00;;
8102;SDS011;4094;49.948;11.574;2023-08-31T02:19:53;4.80;;;4.50;;
8102;SDS011;4094;49.948;11.574;2023-08-31T02:22:23;5.13;;;4.70;;
8102;SDS011;4094;49.948;11.574;2023-08-31T02:24:52;5.10;;;4.80;;
8102;SDS011;4094;49.948;11.574;2023-08-31T02:27:22;4.57;;;4.37;;
8102;SDS011;4094;49.948;11.574;2023-08-31T02:29:51;4.67;;;4.37;;
8102;SDS011;4094;49.948;11.574;2023-08-31T02:32:21;5.03;;;4.73;;
8102;SDS011;4094;49.948;11.574;2023-08-31T02:34:50;5.07;;;4.77;;
8102;SDS011;4094;49.948;11.574;2023-08-31T02:37:20;5.10;;;4.80;;
8102;SDS011;4094;49.948;11.574;2023-08-31T02:39:50;4.53;;;4.23;;
8102;SDS011;4094;49.948;11.574;2023-08-31T02:42:20;5.47;;;4.97;;
8102;SDS011;4094;49.948;11.574;2023-08-31T02:44:52;4.77;;;4.47;;
8102;SDS011;4094;49.948;11.574;2023-08-31T02:47:22;4.70;;;4.50;;
8102;SDS011;4094;49.948;11.574;2023-08-31T02:49:51;5.10;;;4.80;;
8102;SDS011;4094;49.948;11.574;2023-08-31T02:52:20;4.57;;;4.30;;
8102;SDS011;4094;49.948;11.574;2023-08-31T02:54:49;5.03;;;4.73;;
8102;SDS011;4094;49.948;11.574;2023-08-31T02:57:20;5.03;;;4.73;;
8102;SDS011;4094;49.948;11.574;2023-08-31T02:59:52;4.77;;;4.47;;
8102;SDS011;4094;49.948;11.574;2023-08-31T03:02:21;5.30;;;4.90;;
8102;SDS011;4094;49.948;11.574;2023-08-31T03:04:51;4.93;;;4.53;;
8102;SDS011;4094;49.948;11.574;2023-08-31T03:07:20;5.13;;;4.83;;
8102;SDS011;4094;49.948;11.574;2023-08-31T03:09:49;5.27;;;4.77;;
8102;SDS011;4094;49.948;11.574;2023-08-31T03:12:18;5.50;;;5.00;;
8102;SDS011;4094;49.948;11.574;2023-08-31T03:14:48;5.57;;;5.17;;
8102;SDS011;4094;49.948;11.574;2023-08-31T03:17:19;4.50;;;4.30;;
8102;SDS011;4094;49.948;11.574;2023-08-31T03:19:49;5.23;;;4.83;;
8102;SDS011;4094;49.948;11.574;2023-08-31T03:22:18;4.97;;;4.60;;
8102;SDS011;4094;49.948;11.574;2023-08-31T03:24:48;6.67;;;4.83;;
8102;SDS011;4094;49.948;11.574;2023-08-31T03:27:17;4.93;;;4.63;;
8102;SDS011;4094;49.948;11.574;2023-08-31T03:29:46;5.27;;;4.87;;
8102;SDS011;4094;49.948;11.574;2023-08-31T03:32:16;5.20;;;4.90;;
8102;SDS011;4094;49.948;11.574;2023-08-31T03:34:47;5.17;;;4.87;;
8102;SDS011;4094;49.948;11.574;2023-08-31T03:37:17;4.93;;;4.60;;
8102;SDS011;4094;49.948;11.574;2023-08-31T03:39:47;5.43;;;5.03;;
8102;SDS011;4094;49.948;11.574;2023-08-31T03:42:18;5.07;;;4.70;;
8102;SDS011;4094;49.948;11.574;2023-08-31T03:44:47;5.17;;;4.87;;
8102;SDS011;4094;49.948;11.574;2023-08-31T03:47:18;5.37;;;4.80;;
8102;SDS011;4094;49.948;11.574;2023-08-31T03:49:48;5.20;;;4.80;;
8102;SDS011;4094;49.948;11.574;2023-08-31T03:52:18;5.20;;;4.80;;
8102;SDS011;4094;49.948;11.574;2023-08-31T03:54:48;5.03;;;4.70;;
8102;SDS011;4094;49.948;11.574;2023-08-31T03:57:18;5.10;;;4.80;;
8102;SDS011;4094;49.948;11.574;2023-08-31T03:59:48;5.20;;;4.90;;
8102;SDS011;4094;49.948;11.574;2023-08-31T04:02:17;5.10;;;4.80;;
8102;SDS011;4094;49.948;11.574;2023-08-31T04:04:46;5.50;;;5.10;;
8102;SDS011;4094;49.948;11.574;2023-08-31T04:07:17;5.57;;;5.17;;
8102;SDS011;4094;49.948;11.574;2023-08-31T04:09:46;5.43;;;5.03;;
8102;SDS011;4094;49.948;11.574;2023-08-31T04:12:15;5.47;;;5.07;;
8102;SDS011;4094;49.948;11.574;2023-08-31T04:14:44;5.57;;;5.07;;
8102;SDS011;4094;49.948;11.574;2023-08-31T04:17:15;5.50;;;5.00;;
8102;SDS011;4094;49.948;11.574;2023-08-31T04:19:44;4.93;;;4.63;;
8102;SDS011;4094;49.948;11.574;2023-08-31T04:22:13;5.77;;;5.37;;
8102;SDS011;4094;49.948;11.574;2023-08-31T04:24:44;5.33;;;5.03;;
8102;SDS011;4094;49.948;11.574;2023-08-31T04:27:13;5.50;;;5.20;;
8102;SDS011;4094;49.948;11.574;2023-08-31T04:29:42;5.60;;;5.20;;
8102;SDS011;4094;49.948;11.574;2023-08-31T04:32:11;5.40;;;5.10;;
8102;SDS011;4094;49.948;11.574;2023-08-31T04:34:40;6.07;;;5.47;;
8102;SDS011;4094;49.948;11.574;2023-08-31T04:37:09;5.73;;;5.23;;
8102;SDS011;4094;49.948;11.574;2023-08-31T04:39:38;5.83;;;5.43;;
8102;SDS011;4094;49.948;11.574;2023-08-31T04:42:08;5.13;;;4.70;;
8102;SDS011;4094;49.948;11.574;2023-08-31T04:44:38;5.90;;;5.43;;
8102;SDS011;4094;49.948;11.574;2023-08-31T04:47:07;5.87;;;5.37;;
8102;SDS011;4094;49.948;11.574;2023-08-31T04:49:36;5.77;;;5.33;;
8102;SDS011;4094;49.948;11.574;2023-08-31T04:52:05;5.37;;;4.97;;
8102;SDS011;4094;49.948;11.574;2023-08-31T04:54:34;5.60;;;5.20;;
8102;SDS011;4094;49.948;11.574;2023-08-31T04:57:04;5.57;;;5.17;;
8102;SDS011;4094;49.948;11.574;2023-08-31T04:59:36;5.80;;;5.30;;
8102;SDS011;4094;49.948;11.574;2023-08-31T05:02:05;5.57;;;5.17;;
8102;SDS011;4094;49.948;11.574;2023-08-31T05:04:34;6.27;;;5.87;;
8102;SDS011;4094;49.948;11.574;2023-08-31T05:07:03;5.90;;;5.40;;
8102;SDS011;4094;49.948;11.574;2023-08-31T05:09:32;5.47;;;5.07;;
8102;SDS011;4094;49.948;11.574;2023-08-31T05:12:02;5.73;;;5.23;;
8102;SDS011;4094;49.948;11.574;2023-08-31T05:14:32;5.97;;;5.37;;
8102;SDS011;4094;49.948;11.574;2023-08-31T05:17:05;5.73;;;5.33;;
8102;SDS011;4094;49.948;11.574;2023-08-31T05:19:35;8.63;;;6.03;;
8102;SDS011;4094;49.948;11.574;2023-08-31T05:22:05;6.03;;;5.50;;
8102;SDS011;4094;49.948;11.574;2023-08-31T05:24:34;5.73;;;5.33;;
8102;SDS011;4094;49.948;11.574;2023-08-31T05:27:03;6.33;;;5.33;;
8102;SDS011;4094;49.948;11.574;2023-08-31T05:29:32;5.83;;;5.33;;
8102;SDS011;4094;49.948;11.574;2023-08-31T05:32:02;6.20;;;5.70;;
8102;SDS011;4094;49.948;11.574;2023-08-31T05:34:33;5.60;;;5.20;;
8102;SDS011;4094;49.948;11.574;2023-08-31T05:37:05;5.77;;;5.27;;
8102;SDS011;4094;49.948;11.574;2023-08-31T05:39:34;6.13;;;5.63;;
8102;SDS011;4094;49.948;11.574;2023-08-31T05:42:04;6.07;;;5.57;;
8102;SDS011;4094;49.948;11.574;2023-08-31T05:44:33;6.77;;;5.40;;
8102;SDS011;4094;49.948;11.574;2023-08-31T05:47:03;5.77;;;5.33;;
8102;SDS011;4094;49.948;11.574;2023-08-31T05:49:33;5.90;;;5.50;;
8102;SDS011;4094;49.948;11.574;2023-08-31T05:52:03;6.23;;;5.63;;
8102;SDS011;4094;49.948;11.574;2023-08-31T05:54:32;6.20;;;5.80;;
8102;SDS011;4094;49.948;11.574;2023-08-31T05:57:02;6.60;;;6.00;;
8102;SDS011;4094;49.948;11.574;2023-08-31T05:59:33;6.27;;;5.80;;
8102;SDS011;4094;49.948;11.574;2023-08-31T06:02:02;6.17;;;5.53;;
8102;SDS011;4094;49.948;11.574;2023-08-31T06:04:33;5.40;;;5.00;;
8102;SDS011;4094;49.948;11.574;2023-08-31T06:07:03;6.17;;;5.57;;
8102;SDS011;4094;49.948;11.574;2023-08-31T06:09:32;5.40;;;4.90;;
8102;SDS011;4094;49.948;11.574;2023-08-31T06:12:01;6.73;;;5.30;;
8102;SDS011;4094;49.948;11.574;2023-08-31T06:14:30;5.90;;;5.40;;
8102;SDS011;4094;49.948;11.574;2023-08-31T06:17:00;6.03;;;5.40;;
8102;SDS011;4094;49.948;11.574;2023-08-31T06:19:30;6.03;;;5.53;;
8102;SDS011;4094;49.948;11.574;2023-08-31T06:22:00;6.27;;;5.77;;
8102;SDS011;4094;49.948;11.574;2023-08-31T06:24:30;6.33;;;5.80;;
8102;SDS011;4094;49.948;11.574;2023-08-31T06:27:00;6.13;;;5.63;;
8102;SDS011;4094;49.948;11.574;2023-08-31T06:29:29;6.00;;;5.40;;
8102;SDS011;4094;49.948;11.574;2023-08-31T06:31:58;6.27;;;5.77;;
8102;SDS011;4094;49.948;11.574;2023-08-31T06:34:27;5.60;;;4.60;;
8102;SDS011;4094;49.948;11.574;2023-08-31T06:36:58;6.10;;;5.53;;
8102;SDS011;4094;49.948;11.574;2023-08-31T06:39:28;5.97;;;5.50;;
8102;SDS011;4094;49.948;11.574;2023-08-31T06:41:58;6.33;;;5.83;;
8102;SDS011;4094;49.948;11.574;2023-08-31T06:44:30;6.50;;;6.00;;
8102;SDS011;4094;49.948;11.574;2023-08-31T06:46:59;6.87;;;6.27;;
8102;SDS011;4094;49.948;11.574;2023-08-31T06:49:28;6.07;;;5.57;;
8102;SDS011;4094;49.948;11.574;2023-08-31T06:52:00;5.93;;;5.40;;
8102;SDS011;4094;49.948;11.574;2023-08-31T06:54:38;6.07;;;5.67;;
8102;SDS011;4094;49.948;11.574;2023-08-31T06:57:07;6.27;;;5.80;;
8102;SDS011;4094;49.948;11.574;2023-08-31T06:59:36;6.80;;;6.20;;
8102;SDS011;4094;49.948;11.574;2023-08-31T07:02:05;6.20;;;5.80;;
8102;SDS011;4094;49.948;11.574;2023-08-31T07:04:34;6.77;;;6.10;;
8102;SDS011;4094;49.948;11.574;2023-08-31T07:07:04;6.57;;;5.87;;
8102;SDS011;4094;49.948;11.574;2023-08-31T07:09:34;6.77;;;6.10;;
8102;SDS011;4094;49.948;11.574;2023-08-31T07:12:05;6.70;;;6.10;;
8102;SDS011;4094;49.948;11.574;2023-08-31T07:14:34;6.63;;;6.03;;
8102;SDS011;4094;49.948;11.574;2023-08-31T07:17:03;6.67;;;5.80;;
8102;SDS011;4094;49.948;11.574;2023-08-31T07:19:35;6.83;;;6.13;;
8102;SDS011;4094;49.948;11.574;2023-08-31T07:22:05;6.83;;;6.23;;
8102;SDS011;4094;49.948;11.574;2023-08-31T07:24:34;6.60;;;5.87;;
8102;SDS011;4094;49.948;11.574;2023-08-31T07:27:05;6.40;;;5.80;;
8102;SDS011;4094;49.948;11.574;2023-08-31T07:29:34;6.90;;;6.30;;
8102;SDS011;4094;49.948;11.574;2023-08-31T07:32:04;6.40;;;5.83;;
8102;SDS011;4094;49.948;11.574;2023-08-31T07:34:33;6.67;;;6.07;;
8102;SDS011;4094;49.948;11.574;2023-08-31T07:37:03;6.63;;;5.93;;
8102;SDS011;4094;49.948;11.574;2023-08-31T07:39:33;5.80;;;5.30;;
8102;SDS011;4094;49.948;11.574;2023-08-31T07:42:04;6.97;;;5.60;;
8102;SDS011;4094;49.948;11.574;2023-08-31T07:44:35;5.90;;;5.50;;
8102;SDS011;4094;49.948;11.574;2023-08-31T07:47:04;6.37;;;5.77;;
8102;SDS011;4094;49.948;11.574;2023-08-31T07:49:34;5.90;;;5.30;;
8102;SDS011;4094;49.948;11.574;2023-08-31T07:52:03;6.80;;;5.57;;
8102;SDS011;4094;49.948;11.574;2023-08-31T07:54:32;5.90;;;5.27;;
8102;SDS011;4094;49.948;11.574;2023-08-31T07:57:01;5.97;;;5.40;;
8102;SDS011;4094;49.948;11.574;2023-08-31T07:59:32;6.63;;;5.93;;
8102;SDS011;4094;49.948;11.574;2023-08-31T08:02:01;6.33;;;5.73;;
8102;SDS011;4094;49.948;11.574;2023-08-31T08:04:30;5.73;;;5.20;;
8102;SDS011;4094;49.948;11.574;2023-08-31T08:06:59;6.70;;;5.33;;
8102;SDS011;4094;49.948;11.574;2023-08-31T08:09:28;5.43;;;5.00;;
8102;SDS011;4094;49.948;11.574;2023-08-31T08:11:58;5.17;;;4.73;;
8102;SDS011;4094;49.948;11.574;2023-08-31T08:14:27;6.73;;;4.93;;
8102;SDS011;4094;49.948;11.574;2023-08-31T08:16:58;6.47;;;4.73;;
8102;SDS011;4094;49.948;11.574;2023-08-31T08:19:27;6.60;;;4.57;;
8102;SDS011;4094;49.948;11.574;2023-08-31T08:21:56;5.67;;;4.80;;
8102;SDS011;4094;49.948;11.574;2023-08-31T08:24:25;5.80;;;5.30;;
8102;SDS011;4094;49.948;11.574;2023-08-31T08:26:55;5.43;;;5.00;;
8102;SDS011;4094;49.948;11.574;2023-08-31T08:29:24;5.30;;;4.67;;
8102;SDS011;4094;49.948;11.574;2023-08-31T08:31:53;5.07;;;4.57;;
8102;SDS011;4094;49.948;11.574;2023-08-31T08:34:23;5.30;;;4.90;;
8102;SDS011;4094;49.948;11.574;2023-08-31T08:36:55;7.67;;;4.63;;
8102;SDS011;4094;49.948;11.574;2023-08-31T08:39:24;6.47;;;5.47;;
8102;SDS011;4094;49.948;11.574;2023-08-31T08:41:53;5.67;;;5.03;;
8102;SDS011;4094;49.948;11.574;2023-08-31T08:44:24;5.37;;;4.87;;
8102;SDS011;4094;49.948;11.574;2023-08-31T08:46:54;6.00;;;4.33;;
8102;SDS011;4094;49.948;11.574;2023-08-31T08:49:26;5.50;;;4.43;;
8102;SDS011;4094;49.948;11.574;2023-08-31T08:51:58;5.33;;;4.83;;
8102;SDS011;4094;49.948;11.574;2023-08-31T08:54:28;4.83;;;4.30;;
8102;SDS011;4094;49.948;11.574;2023-08-31T08:56:57;4.83;;;4.40;;
8102;SDS011;4094;49.948;11.574;2023-08-31T08:59:28;4.60;;;4.13;;
8102;SDS011;4094;49.948;11.574;2023-08-31T09:01:58;6.03;;;4.20;;
8102;SDS011;4094;49.948;11.574;2023-08-31T09:04:29;5.93;;;4.37;;
8102;SDS011;4094;49.948;11.574;2023-08-31T09:06:59;5.37;;;4.17;;
8102;SDS011;4094;49.948;11.574;2023-08-31T09:09:28;4.43;;;4.13;;
8102;SDS011;4094;49.948;11.574;2023-08-31T09:12:05;4.00;;;3.70;;
8102;SDS011;4094;49.948;11.574;2023-08-31T09:14:36;4.20;;;3.90;;
8102;SDS011;4094;49.948;11.574;2023-08-31T09:17:05;5.17;;;4.00;;
8102;SDS011;4094;49.948;11.574;2023-08-31T09:19:36;4.70;;;4.03;;
8102;SDS011;4094;49.948;11.574;2023-08-31T09:22:05;5.20;;;4.10;;
8102;SDS011;4094;49.948;11.574;2023-08-31T09:24:40;4.23;;;3.93;;
8102;SDS011;4094;49.948;11.574;2023-08-31T09:27:11;4.07;;;3.77;;
8102;SDS011;4094;49.948;11.574;2023-08-31T09:29:44;3.93;;;3.60;;
8102;SDS011;4094;49.948;11.574;2023-08-31T09:32:16;3.67;;;3.27;;
8102;SDS011;4094;49.948;11.574;2023-08-31T09:34:47;3.40;;;3.17;;
8102;SDS011;4094;49.948;11.574;2023-08-31T09:37:25;3.60;;;3.30;;
8102;SDS011;4094;49.948;11.574;2023-08-31T09:39:55;5.20;;;3.63;;
8102;SDS011;4094;49.948;11.574;2023-08-31T09:42:26;4.03;;;3.60;;
8102;SDS011;4094;49.948;11.574;2023-08-31T09:45:05;3.93;;;3.53;;
8102;SDS011;4094;49.948;11.574;2023-08-31T09:47:35;3.50;;;3.20;;
8102;SDS011;4094;49.948;11.574;2023-08-31T09:50:07;3.90;;;3.47;;
8102;SDS011;4094;49.948;11.574;2023-08-31T09:52:38;4.30;;;3.90;;
8102;SDS011;4094;49.948;11.574;2023-08-31T09:55:09;3.93;;;3.63;;
8102;SDS011;4094;49.948;11.574;2023-08-31T09:57:39;3.97;;;3.63;;
8102;SDS011;4094;49.948;11.574;2023-08-31T10:00:14;4.13;;;3.73;;
8102;SDS011;4094;49.948;11.574;2023-08-31T10:02:48;3.90;;;3.60;;
8102;SDS011;4094;49.948;11.574;2023-08-31T10:05:20;4.00;;;3.57;;
8102;SDS011;4094;49.948;11.574;2023-08-31T10:07:52;4.80;;;3.53;;
8102;SDS011;4094;49.948;11.574;2023-08-31T10:10:23;3.73;;;3.43;;
8102;SDS011;4094;49.948;11.574;2023-08-31T10:12:52;3.97;;;3.57;;
8102;SDS011;4094;49.948;11.574;2023-08-31T10:15:24;3.70;;;3.40;;
8102;SDS011;4094;49.948;11.574;2023-08-31T10:18:00;3.63;;;3.33;;
8102;SDS011;4094;49.948;11.574;2023-08-31T10:20:31;3.40;;;3.20;;
8102;SDS011;4094;49.948;11.574;2023-08-31T10:23:01;4.13;;;3.73;;
8102;SDS011;4094;49.948;11.574;2023-08-31T10:28:28;3.50;;;3.30;;
8102;SDS011;4094;49.948;11.574;2023-08-31T10:31:01;4.03;;;3.73;;
8102;SDS011;4094;49.948;11.574;2023-08-31T10:33:31;3.60;;;3.30;;
8102;SDS011;4094;49.948;11.574;2023-08-31T10:36:02;3.70;;;3.40;;
8102;SDS011;4094;49.948;11.574;2023-08-31T10:38:32;4.47;;;3.40;;
8102;SDS011;4094;49.948;11.574;2023-08-31T10:41:03;3.17;;;2.97;;
8102;SDS011;4094;49.948;11.574;2023-08-31T10:43:50;3.53;;;3.23;;
8102;SDS011;4094;49.948;11.574;2023-08-31T10:46:27;3.37;;;3.07;;
8102;SDS011;4094;49.948;11.574;2023-08-31T10:48:58;4.47;;;3.13;;
8102;SDS011;4094;49.948;11.574;2023-08-31T10:51:31;4.27;;;3.20;;
8102;SDS011;4094;49.948;11.574;2023-08-31T10:54:07;3.30;;;3.00;;
8102;SDS011;4094;49.948;11.574;2023-08-31T10:59:42;3.80;;;2.83;;
8102;SDS011;4094;49.948;11.574;2023-08-31T11:02:29;3.37;;;3.10;;
8102;SDS011;4094;49.948;11.574;2023-08-31T11:05:00;3.50;;;3.03;;
8102;SDS011;4094;49.948;11.574;2023-08-31T11:07:33;3.20;;;3.00;;
8102;SDS011;4094;49.948;11.574;2023-08-31T11:10:09;3.23;;;2.93;;
8102;SDS011;4094;49.948;11.574;2023-08-31T11:12:46;3.20;;;2.90;;
8102;SDS011;4094;49.948;11.574;2023-08-31T11:15:17;3.50;;;2.93;;
8102;SDS011;4094;49.948;11.574;2023-08-31T11:17:49;3.10;;;2.90;;
8102;SDS011;4094;49.948;11.574;2023-08-31T11:20:20;3.20;;;3.00;;
8102;SDS011;4094;49.948;11.574;2023-08-31T11:22:51;3.30;;;3.00;;
8102;SDS011;4094;49.948;11.574;2023-08-31T11:25:21;2.90;;;2.60;;
8102;SDS011;4094;49.948;11.574;2023-08-31T11:27:53;5.03;;;3.10;;
8102;SDS011;4094;49.948;11.574;2023-08-31T11:30:24;3.00;;;2.80;;
8102;SDS011;4094;49.948;11.574;2023-08-31T11:32:54;3.40;;;3.10;;
8102;SDS011;4094;49.948;11.574;2023-08-31T11:35:23;3.10;;;2.90;;
8102;SDS011;4094;49.948;11.574;2023-08-31T11:37:54;2.77;;;2.57;;
8102;SDS011;4094;49.948;11.574;2023-08-31T11:40:25;4.33;;;3.13;;
8102;SDS011;4094;49.948;11.574;2023-08-31T11:42:55;3.23;;;2.93;;
8102;SDS011;4094;49.948;11.574;2023-08-31T11:45:27;3.10;;;2.80;;
8102;SDS011;4094;49.948;11.574;2023-08-31T11:47:57;2.83;;;2.63;;
8102;SDS011;4094;49.948;11.574;2023-08-31T11:50:27;3.40;;;3.10;;
8102;SDS011;4094;49.948;11.574;2023-08-31T11:52:58;3.37;;;3.07;;
8102;SDS011;4094;49.948;11.574;2023-08-31T11:55:27;3.17;;;2.87;;
8102;SDS011;4094;49.948;11.574;2023-08-31T11:57:57;3.00;;;2.73;;
8102;SDS011;4094;49.948;11.574;2023-08-31T12:00:26;2.80;;;2.60;;
8102;SDS011;4094;49.948;11.574;2023-08-31T12:02:56;4.80;;;2.73;;
8102;SDS011;4094;49.948;11.574;2023-08-31T12:05:27;9.03;;;3.07;;
8102;SDS011;4094;49.948;11.574;2023-08-31T12:07:56;5.33;;;3.50;;
8102;SDS011;4094;49.948;11.574;2023-08-31T12:10:27;2.80;;;2.60;;
8102;SDS011;4094;49.948;11.574;2023-08-31T12:13:07;3.20;;;2.90;;
8102;SDS011;4094;49.948;11.574;2023-08-31T12:15:37;3.47;;;2.80;;
8102;SDS011;4094;49.948;11.574;2023-08-31T12:18:07;3.30;;;3.00;;
8102;SDS011;4094;49.948;11.574;2023-08-31T12:20:44;3.10;;;2.80;;
8102;SDS011;4094;49.948;11.574;2023-08-31T12:23:16;3.77;;;2.60;;
8102;SDS011;4094;49.948;11.574;2023-08-31T12:25:48;3.27;;;2.97;;
8102;SDS011;4094;49.948;11.574;2023-08-31T12:28:18;3.30;;;3.00;;
8102;SDS011;4094;49.948;11.574;2023-08-31T12:30:49;3.30;;;3.00;;
8102;SDS011;4094;49.948;11.574;2023-08-31T12:33:20;3.07;;;2.87;;
8102;SDS011;4094;49.948;11.574;2023-08-31T12:35:49;4.30;;;3.30;;
8102;SDS011;4094;49.948;11.574;2023-08-31T12:38:19;4.10;;;3.20;;
8102;SDS011;4094;49.948;11.574;2023-08-31T12:40:49;6.83;;;3.60;;
8102;SDS011;4094;49.948;11.574;2023-08-31T12:43:18;3.73;;;3.33;;
8102;SDS011;4094;49.948;11.574;2023-08-31T12:45:48;4.03;;;3.03;;
8102;SDS011;4094;49.948;11.574;2023-08-31T12:48:17;3.70;;;3.40;;
8102;SDS011;4094;49.948;11.574;2023-08-31T12:50:46;3.40;;;3.20;;
8102;SDS011;4094;49.948;11.574;2023-08-31T12:53:16;3.47;;;3.17;;
8102;SDS011;4094;49.948;11.574;2023-08-31T12:55:47;4.63;;;3.40;;
8102;SDS011;4094;49.948;11.574;2023-08-31T12:58:17;5.30;;;3.53;;
8102;SDS011;4094;49.948;11.574;2023-08-31T13:00:46;3.87;;;3.57;;
8102;SDS011;4094;49.948;11.574;2023-08-31T13:03:17;3.60;;;3.30;;
8102;SDS011;4094;49.948;11.574;2023-08-31T13:05:47;3.93;;;3.60;;
8102;SDS011;4094;49.948;11.574;2023-08-31T13:08:18;3.70;;;3.40;;
8102;SDS011;4094;49.948;11.574;2023-08-31T13:10:52;3.80;;;3.50;;
8102;SDS011;4094;49.948;11.574;2023-08-31T13:13:22;3.80;;;3.40;;
8102;SDS011;4094;49.948;11.574;2023-08-31T13:15:51;3.90;;;3.20;;
8102;SDS011;4094;49.948;11.574;2023-08-31T13:18:20;5.47;;;3.67;;
8102;SDS011;4094;49.948;11.574;2023-08-31T13:20:50;4.40;;;3.63;;
8102;SDS011;4094;49.948;11.574;2023-08-31T13:23:20;4.93;;;3.70;;
8102;SDS011;4094;49.948;11.574;2023-08-31T13:25:53;3.83;;;3.50;;
8102;SDS011;4094;49.948;11.574;2023-08-31T13:28:24;3.90;;;3.60;;
8102;SDS011;4094;49.948;11.574;2023-08-31T13:30:57;3.70;;;3.40;;
8102;SDS011;4094;49.948;11.574;2023-08-31T13:33:28;3.77;;;3.47;;
8102;SDS011;4094;49.948;11.574;2023-08-31T13:35:57;3.60;;;3.30;;
8102;SDS011;4094;49.948;11.574;2023-08-31T13:38:28;3.40;;;3.20;;
8102;SDS011;4094;49.948;11.574;2023-08-31T13:40:58;3.40;;;3.10;;
8102;SDS011;4094;49.948;11.574;2023-08-31T13:43:27;3.60;;;3.30;;
8102;SDS011;4094;49.948;11.574;2023-08-31T13:45:57;3.97;;;3.30;;
8102;SDS011;4094;49.948;11.574;2023-08-31T13:48:26;3.60;;;3.30;;
8102;SDS011;4094;49.948;11.574;2023-08-31T13:50:58;3.57;;;3.27;;
8102;SDS011;4094;49.948;11.574;2023-08-31T13:53:27;3.60;;;3.30;;
8102;SDS011;4094;49.948;11.574;2023-08-31T13:55:58;3.50;;;3.20;;
8102;SDS011;4094;49.948;11.574;2023-08-31T13:58:27;3.40;;;3.10;;
8102;SDS011;4094;49.948;11.574;2023-08-31T14:00:56;3.70;;;3.07;;
8102;SDS011;4094;49.948;11.574;2023-08-31T14:03:28;3.27;;;2.80;;
8102;SDS011;4094;49.948;11.574;2023-08-31T14:05:58;3.47;;;3.10;;
8102;SDS011;4094;49.948;11.574;2023-08-31T14:08:27;3.20;;;3.00;;
8102;SDS011;4094;49.948;11.574;2023-08-31T14:10:58;3.70;;;3.40;;
8102;SDS011;4094;49.948;11.574;2023-08-31T14:13:28;3.70;;;3.30;;
8102;SDS011;4094;49.948;11.574;2023-08-31T14:15:58;3.47;;;3.17;;
8102;SDS011;4094;49.948;11.574;2023-08-31T14:18:27;3.43;;;3.13;;
8102;SDS011;4094;49.948;11.574;2023-08-31T14:20:59;3.60;;;3.30;;
8102;SDS011;4094;49.948;11.574;2023-08-31T14:23:29;4.43;;;3.20;;
8102;SDS011;4094;49.948;11.574;2023-08-31T14:26:02;3.80;;;3.00;;
8102;SDS011;4094;49.948;11.574;2023-08-31T14:28:31;3.60;;;2.93;;
8102;SDS011;4094;49.948;11.574;2023-08-31T14:31:03;3.30;;;3.00;;
8102;SDS011;4094;49.948;11.574;2023-08-31T14:33:33;4.07;;;3.60;;
8102;SDS011;4094;49.948;11.574;2023-08-31T14:36:02;4.37;;;3.20;;
8102;SDS011;4094;49.948;11.574;2023-08-31T14:38:32;3.50;;;3.20;;
8102;SDS011;4094;49.948;11.574;2023-08-31T14:41:02;3.23;;;3.00;;
8102;SDS011;4094;49.948;11.574;2023-08-31T14:43:34;3.37;;;3.10;;
8102;SDS011;4094;49.948;11.574;2023-08-31T14:46:03;3.80;;;3.50;;
8102;SDS011;4094;49.948;11.574;2023-08-31T14:48:33;3.47;;;3.17;;
8102;SDS011;4094;49.948;11.574;2023-08-31T14:51:02;3.50;;;3.20;;
8102;SDS011;4094;49.948;11.574;2023-08-31T14:53:32;3.63;;;3.33;;
8102;SDS011;4094;49.948;11.574;2023-08-31T14:56:02;3.40;;;3.10;;
8102;SDS011;4094;49.948;11.574;2023-08-31T14:58:32;3.23;;;2.93;;
8102;SDS011;4094;49.948;11.574;2023-08-31T15:01:02;3.63;;;3.30;;
8102;SDS011;4094;49.948;11.574;2023-08-31T15:03:33;3.83;;;3.07;;
8102;SDS011;4094;49.948;11.574;2023-08-31T15:06:03;3.50;;;3.20;;
8102;SDS011;4094;49.948;11.574;2023-08-31T15:08:35;3.47;;;3.17;;
8102;SDS011;4094;49.948;11.574;2023-08-31T15:11:07;3.20;;;3.00;;
8102;SDS011;4094;49.948;11.574;2023-08-31T15:13:40;3.20;;;2.90;;
8102;SDS011;4094;49.948;11.574;2023-08-31T15:16:09;4.33;;;3.37;;
8102;SDS011;4094;49.948;11.574;2023-08-31T15:18:38;4.60;;;3.57;;
8102;SDS011;4094;49.948;11.574;2023-08-31T15:21:07;3.20;;;3.00;;
8102;SDS011;4094;49.948;11.574;2023-08-31T15:23:36;3.93;;;3.53;;
8102;SDS011;4094;49.948;11.574;2023-08-31T15:26:07;3.30;;;3.07;;